sensor_id;sensor_type;location;lat;lon;timestamp;P1;durP1;ratioP1;P2;durP2;ratioP2
60314;SDS011;46159;42.550;21.904;2024-03-08T00:01:12;23.77;;;15.27;;
60314;SDS011;46159;42.550;21.904;2024-03-08T00:03:39;24.20;;;16.52;;
60314;SDS011;46159;42.550;21.904;2024-03-08T00:06:05;20.63;;;14.07;;
60314;SDS011;46159;42.550;21.904;2024-03-08T00:08:31;25.17;;;15.35;;
60314;SDS011;46159;42.550;21.904;2024-03-08T00:10:57;24.80;;;16.05;;
60314;SDS011;46159;42.550;21.904;2024-03-08T00:13:23;24.75;;;16.40;;
60314;SDS011;46159;42.550;21.904;2024-03-08T00:15:53;23.02;;;14.68;;
60314;SDS011;46159;42.550;21.904;2024-03-08T00:18:19;24.30;;;12.82;;
60314;SDS011;46159;42.550;21.904;2024-03-08T00:20:45;21.00;;;14.07;;
60314;SDS011;46159;42.550;21.904;2024-03-08T00:23:11;23.33;;;14.45;;
60314;SDS011;46159;42.550;21.904;2024-03-08T00:25:37;24.70;;;15.70;;
60314;SDS011;46159;42.550;21.904;2024-03-08T00:28:04;23.88;;;14.10;;
60314;SDS011;46159;42.550;21.904;2024-03-08T00:30:31;19.00;;;12.82;;
60314;SDS011;46159;42.550;21.904;2024-03-08T00:32:57;23.75;;;13.55;;
60314;SDS011;46159;42.550;21.904;2024-03-08T00:35:23;21.45;;;14.13;;
60314;SDS011;46159;42.550;21.904;2024-03-08T00:37:49;20.65;;;13.88;;
60314;SDS011;46159;42.550;21.904;2024-03-08T00:40:15;20.15;;;13.75;;
60314;SDS011;46159;42.550;21.904;2024-03-08T00:42:41;19.98;;;14.05;;
60314;SDS011;46159;42.550;21.904;2024-03-08T00:45:09;20.23;;;13.55;;
60314;SDS011;46159;42.550;21.904;2024-03-08T00:47:35;21.50;;;14.73;;
60314;SDS011;46159;42.550;21.904;2024-03-08T00:50:01;21.88;;;15.30;;
60314;SDS011;46159;42.550;21.904;2024-03-08T00:52:29;27.42;;;15.88;;
60314;SDS011;46159;42.550;21.904;2024-03-08T00:54:55;20.35;;;15.27;;
60314;SDS011;46159;42.550;21.904;2024-03-08T00:57:21;22.52;;;14.55;;
60314;SDS011;46159;42.550;21.904;2024-03-08T00:59:48;21.65;;;13.80;;
60314;SDS011;46159;42.550;21.904;2024-03-08T01:02:14;23.45;;;15.18;;
60314;SDS011;46159;42.550;21.904;2024-03-08T01:04:42;20.15;;;14.00;;
60314;SDS011;46159;42.550;21.904;2024-03-08T01:07:08;21.33;;;12.05;;
60314;SDS011;46159;42.550;21.904;2024-03-08T01:09:34;21.10;;;15.25;;
60314;SDS011;46159;42.550;21.904;2024-03-08T01:12:00;24.75;;;15.70;;
60314;SDS011;46159;42.550;21.904;2024-03-08T01:14:27;22.23;;;14.38;;
60314;SDS011;46159;42.550;21.904;2024-03-08T01:16:56;21.65;;;12.90;;
60314;SDS011;46159;42.550;21.904;2024-03-08T01:19:22;19.02;;;13.70;;
60314;SDS011;46159;42.550;21.904;2024-03-08T01:21:48;22.10;;;13.48;;
60314;SDS011;46159;42.550;21.904;2024-03-08T01:24:15;21.20;;;14.48;;
60314;SDS011;46159;42.550;21.904;2024-03-08T01:26:41;23.52;;;14.63;;
60314;SDS011;46159;42.550;21.904;2024-03-08T01:29:07;20.38;;;13.52;;
60314;SDS011;46159;42.550;21.904;2024-03-08T01:31:33;20.73;;;15.05;;
60314;SDS011;46159;42.550;21.904;2024-03-08T01:34:01;24.40;;;14.40;;
60314;SDS011;46159;42.550;21.904;2024-03-08T01:36:27;20.58;;;13.68;;
60314;SDS011;46159;42.550;21.904;2024-03-08T01:38:53;18.88;;;12.52;;
60314;SDS011;46159;42.550;21.904;2024-03-08T01:41:19;19.60;;;13.27;;
60314;SDS011;46159;42.550;21.904;2024-03-08T01:43:46;21.77;;;14.55;;
60314;SDS011;46159;42.550;21.904;2024-03-08T01:46:12;27.90;;;14.88;;
60314;SDS011;46159;42.550;21.904;2024-03-08T01:48:40;19.27;;;13.75;;
60314;SDS011;46159;42.550;21.904;2024-03-08T01:51:06;20.77;;;14.30;;
60314;SDS011;46159;42.550;21.904;2024-03-08T01:53:33;18.45;;;12.68;;
60314;SDS011;46159;42.550;21.904;2024-03-08T01:56:00;20.13;;;12.68;;
60314;SDS011;46159;42.550;21.904;2024-03-08T01:58:26;17.70;;;13.27;;
60314;SDS011;46159;42.550;21.904;2024-03-08T02:00:53;18.63;;;13.02;;
60314;SDS011;46159;42.550;21.904;2024-03-08T02:03:20;22.67;;;14.00;;
60314;SDS011;46159;42.550;21.904;2024-03-08T02:05:47;19.95;;;11.95;;
60314;SDS011;46159;42.550;21.904;2024-03-08T02:08:13;19.20;;;12.50;;
60314;SDS011;46159;42.550;21.904;2024-03-08T02:10:48;15.63;;;11.65;;
60314;SDS011;46159;42.550;21.904;2024-03-08T02:13:15;19.73;;;12.50;;
60314;SDS011;46159;42.550;21.904;2024-03-08T02:18:20;15.40;;;10.77;;
60314;SDS011;46159;42.550;21.904;2024-03-08T02:20:56;20.88;;;13.48;;
60314;SDS011;46159;42.550;21.904;2024-03-08T02:23:23;37.80;;;26.25;;
60314;SDS011;46159;42.550;21.904;2024-03-08T02:25:53;38.33;;;26.13;;
60314;SDS011;46159;42.550;21.904;2024-03-08T02:28:19;19.35;;;13.90;;
60314;SDS011;46159;42.550;21.904;2024-03-08T02:30:46;20.83;;;13.55;;
60314;SDS011;46159;42.550;21.904;2024-03-08T02:33:16;23.60;;;16.83;;
60314;SDS011;46159;42.550;21.904;2024-03-08T02:35:42;18.55;;;12.75;;
60314;SDS011;46159;42.550;21.904;2024-03-08T02:38:21;14.20;;;8.50;;
60314;SDS011;46159;42.550;21.904;2024-03-08T02:40:49;15.40;;;9.60;;
60314;SDS011;46159;42.550;21.904;2024-03-08T02:43:16;14.00;;;9.93;;
60314;SDS011;46159;42.550;21.904;2024-03-08T02:45:42;13.43;;;8.82;;
60314;SDS011;46159;42.550;21.904;2024-03-08T02:48:09;12.55;;;8.25;;
60314;SDS011;46159;42.550;21.904;2024-03-08T02:50:36;11.57;;;7.35;;
60314;SDS011;46159;42.550;21.904;2024-03-08T02:53:02;14.95;;;9.10;;
60314;SDS011;46159;42.550;21.904;2024-03-08T02:55:28;14.63;;;8.65;;
60314;SDS011;46159;42.550;21.904;2024-03-08T02:57:54;27.23;;;18.48;;
60314;SDS011;46159;42.550;21.904;2024-03-08T03:00:20;24.55;;;17.23;;
60314;SDS011;46159;42.550;21.904;2024-03-08T03:02:48;30.77;;;20.83;;
60314;SDS011;46159;42.550;21.904;2024-03-08T03:05:15;27.50;;;17.73;;
60314;SDS011;46159;42.550;21.904;2024-03-08T03:07:41;23.88;;;17.30;;
60314;SDS011;46159;42.550;21.904;2024-03-08T03:10:07;24.27;;;16.60;;
60314;SDS011;46159;42.550;21.904;2024-03-08T03:12:33;24.67;;;16.45;;
60314;SDS011;46159;42.550;21.904;2024-03-08T03:15:00;117.03;;;52.22;;
60314;SDS011;46159;42.550;21.904;2024-03-08T03:17:26;81.18;;;40.75;;
60314;SDS011;46159;42.550;21.904;2024-03-08T03:19:52;140.35;;;79.28;;
60314;SDS011;46159;42.550;21.904;2024-03-08T03:22:19;37.40;;;24.10;;
60314;SDS011;46159;42.550;21.904;2024-03-08T03:24:45;34.00;;;22.30;;
60314;SDS011;46159;42.550;21.904;2024-03-08T03:27:14;32.47;;;20.05;;
60314;SDS011;46159;42.550;21.904;2024-03-08T03:29:41;24.10;;;16.98;;
60314;SDS011;46159;42.550;21.904;2024-03-08T03:32:11;37.35;;;27.70;;
60314;SDS011;46159;42.550;21.904;2024-03-08T03:34:37;24.45;;;17.58;;
60314;SDS011;46159;42.550;21.904;2024-03-08T03:37:03;20.00;;;13.80;;
60314;SDS011;46159;42.550;21.904;2024-03-08T03:39:30;17.60;;;11.35;;
60314;SDS011;46159;42.550;21.904;2024-03-08T03:41:59;17.85;;;11.40;;
60314;SDS011;46159;42.550;21.904;2024-03-08T03:44:27;18.35;;;13.02;;
60314;SDS011;46159;42.550;21.904;2024-03-08T03:46:53;29.08;;;17.65;;
60314;SDS011;46159;42.550;21.904;2024-03-08T03:49:19;18.85;;;11.52;;
60314;SDS011;46159;42.550;21.904;2024-03-08T03:51:46;55.53;;;27.83;;
60314;SDS011;46159;42.550;21.904;2024-03-08T03:54:12;23.50;;;14.70;;
60314;SDS011;46159;42.550;21.904;2024-03-08T03:56:38;24.42;;;16.42;;
60314;SDS011;46159;42.550;21.904;2024-03-08T03:59:05;15.43;;;10.48;;
60314;SDS011;46159;42.550;21.904;2024-03-08T04:01:31;16.33;;;11.27;;
60314;SDS011;46159;42.550;21.904;2024-03-08T04:03:58;16.17;;;10.68;;
60314;SDS011;46159;42.550;21.904;2024-03-08T04:06:24;16.27;;;11.85;;
60314;SDS011;46159;42.550;21.904;2024-03-08T04:08:50;27.50;;;16.40;;
60314;SDS011;46159;42.550;21.904;2024-03-08T04:11:16;16.25;;;11.60;;
60314;SDS011;46159;42.550;21.904;2024-03-08T04:13:42;17.00;;;11.52;;
60314;SDS011;46159;42.550;21.904;2024-03-08T04:16:08;54.80;;;33.28;;
60314;SDS011;46159;42.550;21.904;2024-03-08T04:18:36;20.98;;;13.55;;
60314;SDS011;46159;42.550;21.904;2024-03-08T04:21:03;18.95;;;12.57;;
60314;SDS011;46159;42.550;21.904;2024-03-08T04:23:31;20.95;;;13.25;;
60314;SDS011;46159;42.550;21.904;2024-03-08T04:25:58;19.27;;;12.30;;
60314;SDS011;46159;42.550;21.904;2024-03-08T04:28:24;17.98;;;11.10;;
60314;SDS011;46159;42.550;21.904;2024-03-08T04:30:51;21.48;;;13.30;;
60314;SDS011;46159;42.550;21.904;2024-03-08T04:33:17;17.20;;;11.05;;
60314;SDS011;46159;42.550;21.904;2024-03-08T04:35:43;99.32;;;48.85;;
60314;SDS011;46159;42.550;21.904;2024-03-08T04:38:11;39.67;;;22.88;;
60314;SDS011;46159;42.550;21.904;2024-03-08T04:40:37;23.73;;;13.15;;
60314;SDS011;46159;42.550;21.904;2024-03-08T04:43:03;23.92;;;13.30;;
60314;SDS011;46159;42.550;21.904;2024-03-08T04:45:29;25.30;;;14.35;;
60314;SDS011;46159;42.550;21.904;2024-03-08T04:47:55;29.30;;;15.15;;
60314;SDS011;46159;42.550;21.904;2024-03-08T04:50:21;37.10;;;20.90;;
60314;SDS011;46159;42.550;21.904;2024-03-08T04:52:48;37.67;;;19.10;;
60314;SDS011;46159;42.550;21.904;2024-03-08T04:55:14;20.98;;;12.60;;
60314;SDS011;46159;42.550;21.904;2024-03-08T04:57:40;16.92;;;11.75;;
60314;SDS011;46159;42.550;21.904;2024-03-08T05:00:09;17.48;;;10.40;;
60314;SDS011;46159;42.550;21.904;2024-03-08T05:02:39;18.08;;;11.10;;
60314;SDS011;46159;42.550;21.904;2024-03-08T05:05:06;22.13;;;13.27;;
60314;SDS011;46159;42.550;21.904;2024-03-08T05:07:32;15.75;;;11.00;;
60314;SDS011;46159;42.550;21.904;2024-03-08T05:09:59;19.30;;;13.20;;
60314;SDS011;46159;42.550;21.904;2024-03-08T05:12:25;18.08;;;12.00;;
60314;SDS011;46159;42.550;21.904;2024-03-08T05:14:51;18.15;;;10.85;;
60314;SDS011;46159;42.550;21.904;2024-03-08T05:17:17;19.77;;;13.00;;
60314;SDS011;46159;42.550;21.904;2024-03-08T05:19:43;21.55;;;13.27;;
60314;SDS011;46159;42.550;21.904;2024-03-08T05:22:09;19.15;;;12.70;;
60314;SDS011;46159;42.550;21.904;2024-03-08T05:24:35;33.50;;;15.38;;
60314;SDS011;46159;42.550;21.904;2024-03-08T05:27:02;17.15;;;12.32;;
60314;SDS011;46159;42.550;21.904;2024-03-08T05:29:28;20.60;;;12.25;;
60314;SDS011;46159;42.550;21.904;2024-03-08T05:31:55;20.13;;;12.10;;
60314;SDS011;46159;42.550;21.904;2024-03-08T05:34:22;19.08;;;12.00;;
60314;SDS011;46159;42.550;21.904;2024-03-08T05:36:49;19.33;;;11.63;;
60314;SDS011;46159;42.550;21.904;2024-03-08T05:39:16;19.70;;;11.07;;
60314;SDS011;46159;42.550;21.904;2024-03-08T05:41:42;20.70;;;11.70;;
60314;SDS011;46159;42.550;21.904;2024-03-08T05:44:09;21.85;;;12.30;;
60314;SDS011;46159;42.550;21.904;2024-03-08T05:46:36;25.02;;;13.07;;
60314;SDS011;46159;42.550;21.904;2024-03-08T05:49:05;20.13;;;13.98;;
60314;SDS011;46159;42.550;21.904;2024-03-08T05:51:32;23.42;;;13.68;;
60314;SDS011;46159;42.550;21.904;2024-03-08T05:54:01;19.17;;;13.27;;
60314;SDS011;46159;42.550;21.904;2024-03-08T05:56:28;19.88;;;12.85;;
60314;SDS011;46159;42.550;21.904;2024-03-08T05:58:54;26.25;;;13.95;;
60314;SDS011;46159;42.550;21.904;2024-03-08T06:01:20;24.13;;;13.60;;
60314;SDS011;46159;42.550;21.904;2024-03-08T06:03:46;20.83;;;12.13;;
60314;SDS011;46159;42.550;21.904;2024-03-08T06:06:14;22.08;;;13.68;;
60314;SDS011;46159;42.550;21.904;2024-03-08T06:08:40;24.60;;;12.40;;
60314;SDS011;46159;42.550;21.904;2024-03-08T06:11:08;20.73;;;13.65;;
60314;SDS011;46159;42.550;21.904;2024-03-08T06:13:34;19.25;;;12.55;;
60314;SDS011;46159;42.550;21.904;2024-03-08T06:16:01;26.23;;;14.00;;
60314;SDS011;46159;42.550;21.904;2024-03-08T06:18:33;26.80;;;14.15;;
60314;SDS011;46159;42.550;21.904;2024-03-08T06:20:59;34.45;;;13.55;;
60314;SDS011;46159;42.550;21.904;2024-03-08T06:23:25;21.08;;;13.13;;
60314;SDS011;46159;42.550;21.904;2024-03-08T06:25:52;17.83;;;11.55;;
60314;SDS011;46159;42.550;21.904;2024-03-08T06:28:19;18.90;;;12.65;;
60314;SDS011;46159;42.550;21.904;2024-03-08T06:30:45;18.75;;;11.57;;
60314;SDS011;46159;42.550;21.904;2024-03-08T06:33:11;19.70;;;12.40;;
60314;SDS011;46159;42.550;21.904;2024-03-08T06:35:37;16.55;;;11.27;;
60314;SDS011;46159;42.550;21.904;2024-03-08T06:38:04;25.23;;;15.05;;
60314;SDS011;46159;42.550;21.904;2024-03-08T06:40:30;40.20;;;24.73;;
60314;SDS011;46159;42.550;21.904;2024-03-08T06:42:56;34.38;;;22.00;;
60314;SDS011;46159;42.550;21.904;2024-03-08T06:45:22;21.48;;;13.38;;
60314;SDS011;46159;42.550;21.904;2024-03-08T06:47:48;20.75;;;13.13;;
60314;SDS011;46159;42.550;21.904;2024-03-08T06:50:15;37.67;;;23.55;;
60314;SDS011;46159;42.550;21.904;2024-03-08T06:52:41;68.93;;;46.65;;
60314;SDS011;46159;42.550;21.904;2024-03-08T06:55:08;22.13;;;13.38;;
60314;SDS011;46159;42.550;21.904;2024-03-08T06:57:38;18.70;;;10.68;;
60314;SDS011;46159;42.550;21.904;2024-03-08T07:00:05;27.33;;;11.55;;
60314;SDS011;46159;42.550;21.904;2024-03-08T07:02:34;21.63;;;13.13;;
60314;SDS011;46159;42.550;21.904;2024-03-08T07:05:02;19.20;;;11.10;;
60314;SDS011;46159;42.550;21.904;2024-03-08T07:07:29;26.10;;;11.73;;
60314;SDS011;46159;42.550;21.904;2024-03-08T07:09:57;17.10;;;10.43;;
60314;SDS011;46159;42.550;21.904;2024-03-08T07:12:23;26.13;;;13.30;;
60314;SDS011;46159;42.550;21.904;2024-03-08T07:14:49;16.13;;;8.98;;
60314;SDS011;46159;42.550;21.904;2024-03-08T07:17:15;14.35;;;8.93;;
60314;SDS011;46159;42.550;21.904;2024-03-08T07:19:42;16.60;;;10.43;;
60314;SDS011;46159;42.550;21.904;2024-03-08T07:22:09;15.40;;;10.20;;
60314;SDS011;46159;42.550;21.904;2024-03-08T07:24:36;21.45;;;13.68;;
60314;SDS011;46159;42.550;21.904;2024-03-08T07:27:05;15.52;;;9.98;;
60314;SDS011;46159;42.550;21.904;2024-03-08T07:29:31;23.45;;;9.80;;
60314;SDS011;46159;42.550;21.904;2024-03-08T07:31:59;21.80;;;10.52;;
60314;SDS011;46159;42.550;21.904;2024-03-08T07:34:28;16.25;;;8.95;;
60314;SDS011;46159;42.550;21.904;2024-03-08T07:36:58;17.17;;;8.75;;
60314;SDS011;46159;42.550;21.904;2024-03-08T07:39:25;24.35;;;13.43;;
60314;SDS011;46159;42.550;21.904;2024-03-08T07:41:51;20.13;;;11.80;;
60314;SDS011;46159;42.550;21.904;2024-03-08T07:44:18;14.50;;;8.10;;
60314;SDS011;46159;42.550;21.904;2024-03-08T07:46:44;11.55;;;7.22;;
60314;SDS011;46159;42.550;21.904;2024-03-08T07:49:10;13.45;;;9.45;;
60314;SDS011;46159;42.550;21.904;2024-03-08T07:51:37;19.05;;;9.68;;
60314;SDS011;46159;42.550;21.904;2024-03-08T07:54:03;19.30;;;9.10;;
60314;SDS011;46159;42.550;21.904;2024-03-08T07:56:30;23.42;;;10.52;;
60314;SDS011;46159;42.550;21.904;2024-03-08T07:58:56;23.63;;;8.38;;
60314;SDS011;46159;42.550;21.904;2024-03-08T08:01:22;21.80;;;9.48;;
60314;SDS011;46159;42.550;21.904;2024-03-08T08:03:48;14.73;;;8.30;;
60314;SDS011;46159;42.550;21.904;2024-03-08T08:06:16;13.85;;;8.88;;
60314;SDS011;46159;42.550;21.904;2024-03-08T08:08:42;14.05;;;8.05;;
60314;SDS011;46159;42.550;21.904;2024-03-08T08:11:08;18.17;;;8.30;;
60314;SDS011;46159;42.550;21.904;2024-03-08T08:13:36;17.90;;;8.63;;
60314;SDS011;46159;42.550;21.904;2024-03-08T08:16:02;12.82;;;8.02;;
60314;SDS011;46159;42.550;21.904;2024-03-08T08:18:29;13.63;;;7.97;;
60314;SDS011;46159;42.550;21.904;2024-03-08T08:20:55;12.98;;;6.70;;
60314;SDS011;46159;42.550;21.904;2024-03-08T08:23:21;10.35;;;6.40;;
60314;SDS011;46159;42.550;21.904;2024-03-08T08:25:47;11.38;;;7.00;;
60314;SDS011;46159;42.550;21.904;2024-03-08T08:28:15;20.02;;;6.82;;
60314;SDS011;46159;42.550;21.904;2024-03-08T08:30:43;14.05;;;6.50;;
60314;SDS011;46159;42.550;21.904;2024-03-08T08:33:10;10.70;;;6.68;;
60314;SDS011;46159;42.550;21.904;2024-03-08T08:35:39;13.18;;;7.53;;
60314;SDS011;46159;42.550;21.904;2024-03-08T08:38:05;14.50;;;8.13;;
60314;SDS011;46159;42.550;21.904;2024-03-08T08:40:32;10.35;;;5.75;;
60314;SDS011;46159;42.550;21.904;2024-03-08T08:42:58;12.57;;;6.20;;
60314;SDS011;46159;42.550;21.904;2024-03-08T08:45:25;15.60;;;5.95;;
60314;SDS011;46159;42.550;21.904;2024-03-08T08:47:51;12.77;;;7.88;;
60314;SDS011;46159;42.550;21.904;2024-03-08T08:50:18;23.13;;;8.60;;
60314;SDS011;46159;42.550;21.904;2024-03-08T08:52:50;13.15;;;6.65;;
60314;SDS011;46159;42.550;21.904;2024-03-08T08:55:16;20.77;;;7.88;;
60314;SDS011;46159;42.550;21.904;2024-03-08T08:57:45;8.65;;;5.03;;
60314;SDS011;46159;42.550;21.904;2024-03-08T09:00:12;9.18;;;4.60;;
60314;SDS011;46159;42.550;21.904;2024-03-08T09:02:43;11.35;;;5.43;;
60314;SDS011;46159;42.550;21.904;2024-03-08T09:05:10;10.35;;;4.45;;
60314;SDS011;46159;42.550;21.904;2024-03-08T09:07:42;9.23;;;4.88;;
60314;SDS011;46159;42.550;21.904;2024-03-08T09:10:09;14.80;;;5.78;;
60314;SDS011;46159;42.550;21.904;2024-03-08T09:12:37;12.02;;;6.45;;
60314;SDS011;46159;42.550;21.904;2024-03-08T09:15:06;13.70;;;6.20;;
60314;SDS011;46159;42.550;21.904;2024-03-08T09:17:36;9.10;;;4.65;;
60314;SDS011;46159;42.550;21.904;2024-03-08T09:20:06;12.32;;;5.32;;
60314;SDS011;46159;42.550;21.904;2024-03-08T09:22:33;13.82;;;6.40;;
60314;SDS011;46159;42.550;21.904;2024-03-08T09:24:59;17.20;;;6.95;;
60314;SDS011;46159;42.550;21.904;2024-03-08T09:27:26;16.27;;;9.88;;
60314;SDS011;46159;42.550;21.904;2024-03-08T09:29:53;11.02;;;6.53;;
60314;SDS011;46159;42.550;21.904;2024-03-08T09:32:19;9.90;;;4.18;;
60314;SDS011;46159;42.550;21.904;2024-03-08T09:34:47;8.73;;;4.32;;
60314;SDS011;46159;42.550;21.904;2024-03-08T09:37:14;11.73;;;5.90;;
60314;SDS011;46159;42.550;21.904;2024-03-08T09:39:40;8.48;;;4.20;;
60314;SDS011;46159;42.550;21.904;2024-03-08T09:42:06;11.55;;;5.07;;
60314;SDS011;46159;42.550;21.904;2024-03-08T09:44:32;10.55;;;4.38;;
60314;SDS011;46159;42.550;21.904;2024-03-08T09:47:00;12.02;;;5.03;;
60314;SDS011;46159;42.550;21.904;2024-03-08T09:49:27;9.38;;;4.60;;
60314;SDS011;46159;42.550;21.904;2024-03-08T09:51:54;11.70;;;5.18;;
60314;SDS011;46159;42.550;21.904;2024-03-08T09:54:21;9.00;;;4.20;;
60314;SDS011;46159;42.550;21.904;2024-03-08T09:56:47;14.80;;;4.30;;
60314;SDS011;46159;42.550;21.904;2024-03-08T09:59:14;11.80;;;4.88;;
60314;SDS011;46159;42.550;21.904;2024-03-08T10:01:52;10.02;;;4.40;;
60314;SDS011;46159;42.550;21.904;2024-03-08T10:04:21;8.77;;;4.57;;
60314;SDS011;46159;42.550;21.904;2024-03-08T10:06:48;10.55;;;4.40;;
60314;SDS011;46159;42.550;21.904;2024-03-08T10:09:14;15.43;;;6.30;;
60314;SDS011;46159;42.550;21.904;2024-03-08T10:11:41;12.93;;;4.35;;
60314;SDS011;46159;42.550;21.904;2024-03-08T10:14:10;8.35;;;3.95;;
60314;SDS011;46159;42.550;21.904;2024-03-08T10:16:40;9.63;;;4.88;;
60314;SDS011;46159;42.550;21.904;2024-03-08T10:19:06;9.05;;;4.13;;
60314;SDS011;46159;42.550;21.904;2024-03-08T10:21:33;9.55;;;4.78;;
60314;SDS011;46159;42.550;21.904;2024-03-08T10:23:59;11.18;;;5.68;;
60314;SDS011;46159;42.550;21.904;2024-03-08T10:26:25;11.98;;;4.95;;
60314;SDS011;46159;42.550;21.904;2024-03-08T10:28:52;12.15;;;5.70;;
60314;SDS011;46159;42.550;21.904;2024-03-08T10:31:18;9.32;;;5.38;;
60314;SDS011;46159;42.550;21.904;2024-03-08T10:33:48;10.90;;;6.28;;
60314;SDS011;46159;42.550;21.904;2024-03-08T10:36:16;9.75;;;3.58;;
60314;SDS011;46159;42.550;21.904;2024-03-08T10:38:44;9.25;;;4.68;;
60314;SDS011;46159;42.550;21.904;2024-03-08T10:41:12;8.23;;;4.25;;
60314;SDS011;46159;42.550;21.904;2024-03-08T10:46:30;12.10;;;5.47;;
60314;SDS011;46159;42.550;21.904;2024-03-08T10:48:58;7.72;;;4.07;;
60314;SDS011;46159;42.550;21.904;2024-03-08T10:51:28;7.60;;;3.92;;
60314;SDS011;46159;42.550;21.904;2024-03-08T10:53:55;7.80;;;3.60;;
60314;SDS011;46159;42.550;21.904;2024-03-08T10:56:22;13.15;;;4.57;;
60314;SDS011;46159;42.550;21.904;2024-03-08T10:58:48;7.75;;;3.53;;
60314;SDS011;46159;42.550;21.904;2024-03-08T11:01:14;8.50;;;3.78;;
60314;SDS011;46159;42.550;21.904;2024-03-08T11:08:42;10.00;;;4.72;;
60314;SDS011;46159;42.550;21.904;2024-03-08T11:11:28;6.78;;;3.25;;
60314;SDS011;46159;42.550;21.904;2024-03-08T11:13:57;9.23;;;4.30;;
60314;SDS011;46159;42.550;21.904;2024-03-08T11:21:34;7.82;;;2.30;;
60314;SDS011;46159;42.550;21.904;2024-03-08T11:24:08;7.63;;;3.58;;
60314;SDS011;46159;42.550;21.904;2024-03-08T11:26:37;16.00;;;4.40;;
60314;SDS011;46159;42.550;21.904;2024-03-08T11:31:49;14.13;;;5.05;;
60314;SDS011;46159;42.550;21.904;2024-03-08T11:34:15;8.35;;;3.75;;
60314;SDS011;46159;42.550;21.904;2024-03-08T11:36:42;6.95;;;3.20;;
60314;SDS011;46159;42.550;21.904;2024-03-08T11:39:08;8.38;;;3.28;;
60314;SDS011;46159;42.550;21.904;2024-03-08T11:41:39;8.15;;;3.80;;
60314;SDS011;46159;42.550;21.904;2024-03-08T11:44:07;11.50;;;4.80;;
60314;SDS011;46159;42.550;21.904;2024-03-08T11:46:34;8.80;;;3.60;;
60314;SDS011;46159;42.550;21.904;2024-03-08T11:49:01;12.55;;;3.78;;
60314;SDS011;46159;42.550;21.904;2024-03-08T11:51:28;23.80;;;4.90;;
60314;SDS011;46159;42.550;21.904;2024-03-08T11:53:55;6.05;;;2.78;;
60314;SDS011;46159;42.550;21.904;2024-03-08T11:56:21;10.05;;;4.22;;
60314;SDS011;46159;42.550;21.904;2024-03-08T11:58:54;11.55;;;6.25;;
60314;SDS011;46159;42.550;21.904;2024-03-08T12:01:24;33.10;;;9.77;;
60314;SDS011;46159;42.550;21.904;2024-03-08T12:03:54;12.05;;;5.22;;
60314;SDS011;46159;42.550;21.904;2024-03-08T12:06:23;10.63;;;5.10;;
60314;SDS011;46159;42.550;21.904;2024-03-08T12:08:50;11.90;;;6.68;;
60314;SDS011;46159;42.550;21.904;2024-03-08T12:11:19;12.75;;;7.18;;
60314;SDS011;46159;42.550;21.904;2024-03-08T12:13:48;20.33;;;9.43;;
60314;SDS011;46159;42.550;21.904;2024-03-08T12:16:19;23.55;;;8.45;;
60314;SDS011;46159;42.550;21.904;2024-03-08T12:18:46;15.13;;;8.63;;
60314;SDS011;46159;42.550;21.904;2024-03-08T12:21:13;17.25;;;8.05;;
60314;SDS011;46159;42.550;21.904;2024-03-08T12:23:42;16.80;;;7.80;;
60314;SDS011;46159;42.550;21.904;2024-03-08T12:26:18;14.48;;;8.07;;
60314;SDS011;46159;42.550;21.904;2024-03-08T12:28:49;11.95;;;6.40;;
60314;SDS011;46159;42.550;21.904;2024-03-08T12:31:18;16.52;;;8.70;;
60314;SDS011;46159;42.550;21.904;2024-03-08T12:36:16;22.60;;;9.90;;
60314;SDS011;46159;42.550;21.904;2024-03-08T12:38:46;18.77;;;9.10;;
60314;SDS011;46159;42.550;21.904;2024-03-08T12:41:13;18.80;;;9.82;;
60314;SDS011;46159;42.550;21.904;2024-03-08T12:43:40;18.60;;;8.30;;
60314;SDS011;46159;42.550;21.904;2024-03-08T12:46:06;11.68;;;6.78;;
60314;SDS011;46159;42.550;21.904;2024-03-08T12:48:34;13.35;;;7.88;;
60314;SDS011;46159;42.550;21.904;2024-03-08T12:51:06;13.13;;;6.97;;
60314;SDS011;46159;42.550;21.904;2024-03-08T12:53:32;19.70;;;8.88;;
60314;SDS011;46159;42.550;21.904;2024-03-08T12:55:58;15.55;;;9.27;;
60314;SDS011;46159;42.550;21.904;2024-03-08T12:58:25;16.08;;;9.43;;
60314;SDS011;46159;42.550;21.904;2024-03-08T13:00:52;11.95;;;6.93;;
60314;SDS011;46159;42.550;21.904;2024-03-08T13:03:18;19.77;;;7.80;;
60314;SDS011;46159;42.550;21.904;2024-03-08T13:05:44;14.10;;;7.55;;
60314;SDS011;46159;42.550;21.904;2024-03-08T13:08:10;12.27;;;7.25;;
60314;SDS011;46159;42.550;21.904;2024-03-08T13:10:41;19.15;;;8.80;;
60314;SDS011;46159;42.550;21.904;2024-03-08T13:13:11;15.23;;;7.63;;
60314;SDS011;46159;42.550;21.904;2024-03-08T13:15:40;10.98;;;6.68;;
60314;SDS011;46159;42.550;21.904;2024-03-08T13:18:07;14.88;;;6.88;;
60314;SDS011;46159;42.550;21.904;2024-03-08T13:20:34;12.52;;;5.93;;
60314;SDS011;46159;42.550;21.904;2024-03-08T13:23:02;14.23;;;8.25;;
60314;SDS011;46159;42.550;21.904;2024-03-08T13:25:30;12.82;;;7.68;;
60314;SDS011;46159;42.550;21.904;2024-03-08T13:27:56;13.32;;;7.05;;
60314;SDS011;46159;42.550;21.904;2024-03-08T13:30:24;13.48;;;8.13;;
60314;SDS011;46159;42.550;21.904;2024-03-08T13:32:52;12.80;;;7.18;;
60314;SDS011;46159;42.550;21.904;2024-03-08T13:35:18;16.42;;;7.57;;
60314;SDS011;46159;42.550;21.904;2024-03-08T13:37:51;15.63;;;8.50;;
60314;SDS011;46159;42.550;21.904;2024-03-08T13:40:17;14.85;;;7.30;;
60314;SDS011;46159;42.550;21.904;2024-03-08T13:42:45;13.77;;;7.72;;
60314;SDS011;46159;42.550;21.904;2024-03-08T13:45:12;12.90;;;7.25;;
60314;SDS011;46159;42.550;21.904;2024-03-08T13:47:39;12.90;;;7.57;;
60314;SDS011;46159;42.550;21.904;2024-03-08T13:50:09;14.18;;;7.85;;
60314;SDS011;46159;42.550;21.904;2024-03-08T13:52:40;12.98;;;7.43;;
60314;SDS011;46159;42.550;21.904;2024-03-08T13:55:08;13.50;;;9.18;;
60314;SDS011;46159;42.550;21.904;2024-03-08T13:57:35;15.82;;;9.38;;
60314;SDS011;46159;42.550;21.904;2024-03-08T14:00:01;17.10;;;9.48;;
60314;SDS011;46159;42.550;21.904;2024-03-08T14:02:28;15.13;;;9.38;;
60314;SDS011;46159;42.550;21.904;2024-03-08T14:04:56;13.98;;;9.43;;
60314;SDS011;46159;42.550;21.904;2024-03-08T14:07:22;17.77;;;8.95;;
60314;SDS011;46159;42.550;21.904;2024-03-08T14:09:49;15.65;;;9.10;;
60314;SDS011;46159;42.550;21.904;2024-03-08T14:12:18;16.73;;;8.90;;
60314;SDS011;46159;42.550;21.904;2024-03-08T14:14:44;17.05;;;9.32;;
60314;SDS011;46159;42.550;21.904;2024-03-08T14:17:10;12.52;;;7.22;;
60314;SDS011;46159;42.550;21.904;2024-03-08T14:19:41;12.18;;;7.22;;
60314;SDS011;46159;42.550;21.904;2024-03-08T14:22:08;17.08;;;9.88;;
60314;SDS011;46159;42.550;21.904;2024-03-08T14:24:36;20.30;;;9.77;;
60314;SDS011;46159;42.550;21.904;2024-03-08T14:27:02;14.85;;;9.63;;
60314;SDS011;46159;42.550;21.904;2024-03-08T14:29:29;13.85;;;9.15;;
60314;SDS011;46159;42.550;21.904;2024-03-08T14:31:57;15.02;;;8.77;;
60314;SDS011;46159;42.550;21.904;2024-03-08T14:34:27;14.75;;;8.73;;
60314;SDS011;46159;42.550;21.904;2024-03-08T14:36:55;19.73;;;9.55;;